sensor_id;sensor_type;location;lat;lon;timestamp;temperature;humidity
32356;DHT22;62102;46.562;13.914;2022-07-23T00:01:32;24.50;51.70
32356;DHT22;62102;46.562;13.914;2022-07-23T00:03:58;24.30;52.10
32356;DHT22;62102;46.562;13.914;2022-07-23T00:06:24;24.10;53.00
32356;DHT22;62102;46.562;13.914;2022-07-23T00:08:50;24.00;52.70
32356;DHT22;62102;46.562;13.914;2022-07-23T00:11:17;24.00;52.20
32356;DHT22;62102;46.562;13.914;2022-07-23T00:13:42;24.20;49.80
32356;DHT22;62102;46.562;13.914;2022-07-23T00:16:08;24.30;51.10
32356;DHT22;62102;46.562;13.914;2022-07-23T00:18:34;24.50;51.60
32356;DHT22;62102;46.562;13.914;2022-07-23T00:21:00;24.60;51.40
32356;DHT22;62102;46.562;13.914;2022-07-23T00:23:26;24.70;51.00
32356;DHT22;62102;46.562;13.914;2022-07-23T00:25:53;24.70;50.70
32356;DHT22;62102;46.562;13.914;2022-07-23T00:28:19;24.60;51.10
32356;DHT22;62102;46.562;13.914;2022-07-23T00:30:45;24.30;51.50
32356;DHT22;62102;46.562;13.914;2022-07-23T00:33:11;24.30;51.70
32356;DHT22;62102;46.562;13.914;2022-07-23T00:35:38;24.30;51.80
32356;DHT22;62102;46.562;13.914;2022-07-23T00:38:07;24.40;52.00
32356;DHT22;62102;46.562;13.914;2022-07-23T00:40:33;24.30;52.30
32356;DHT22;62102;46.562;13.914;2022-07-23T00:42:59;24.40;52.80
32356;DHT22;62102;46.562;13.914;2022-07-23T00:45:25;24.40;52.00
32356;DHT22;62102;46.562;13.914;2022-07-23T00:47:51;24.40;51.70
32356;DHT22;62102;46.562;13.914;2022-07-23T00:50:17;24.30;52.10
32356;DHT22;62102;46.562;13.914;2022-07-23T00:52:43;24.20;52.70
32356;DHT22;62102;46.562;13.914;2022-07-23T00:55:10;24.00;53.00
32356;DHT22;62102;46.562;13.914;2022-07-23T00:57:37;23.80;54.10
32356;DHT22;62102;46.562;13.914;2022-07-23T01:00:09;23.80;53.50
32356;DHT22;62102;46.562;13.914;2022-07-23T01:02:36;23.90;53.80
32356;DHT22;62102;46.562;13.914;2022-07-23T01:05:02;23.70;54.10
32356;DHT22;62102;46.562;13.914;2022-07-23T01:07:30;23.60;54.60
32356;DHT22;62102;46.562;13.914;2022-07-23T01:09:58;23.50;54.90
32356;DHT22;62102;46.562;13.914;2022-07-23T01:12:24;23.30;55.20
32356;DHT22;62102;46.562;13.914;2022-07-23T01:14:55;23.30;55.30
32356;DHT22;62102;46.562;13.914;2022-07-23T01:17:22;23.30;55.70
32356;DHT22;62102;46.562;13.914;2022-07-23T01:19:48;23.20;55.80
32356;DHT22;62102;46.562;13.914;2022-07-23T01:22:15;23.20;55.50
32356;DHT22;62102;46.562;13.914;2022-07-23T01:24:48;23.20;55.30
32356;DHT22;62102;46.562;13.914;2022-07-23T01:27:23;23.10;56.00
32356;DHT22;62102;46.562;13.914;2022-07-23T01:29:51;23.10;55.40
32356;DHT22;62102;46.562;13.914;2022-07-23T01:32:18;23.20;55.60
32356;DHT22;62102;46.562;13.914;2022-07-23T01:34:44;23.30;55.40
32356;DHT22;62102;46.562;13.914;2022-07-23T01:37:10;23.40;55.50
32356;DHT22;62102;46.562;13.914;2022-07-23T01:40:05;23.50;55.60
32356;DHT22;62102;46.562;13.914;2022-07-23T01:42:42;23.60;55.80
32356;DHT22;62102;46.562;13.914;2022-07-23T01:45:08;23.60;54.80
32356;DHT22;62102;46.562;13.914;2022-07-23T01:47:34;23.20;55.80
32356;DHT22;62102;46.562;13.914;2022-07-23T01:49:59;22.70;57.60
32356;DHT22;62102;46.562;13.914;2022-07-23T01:52:26;22.30;58.80
32356;DHT22;62102;46.562;13.914;2022-07-23T01:54:53;22.30;58.60
32356;DHT22;62102;46.562;13.914;2022-07-23T01:57:19;22.40;58.00
32356;DHT22;62102;46.562;13.914;2022-07-23T01:59:44;22.60;57.50
32356;DHT22;62102;46.562;13.914;2022-07-23T02:02:10;22.80;57.00
32356;DHT22;62102;46.562;13.914;2022-07-23T02:04:36;23.00;56.80
32356;DHT22;62102;46.562;13.914;2022-07-23T02:07:03;23.10;56.50
32356;DHT22;62102;46.562;13.914;2022-07-23T02:09:29;23.20;56.80
32356;DHT22;62102;46.562;13.914;2022-07-23T02:11:55;23.20;56.40
32356;DHT22;62102;46.562;13.914;2022-07-23T02:14:21;23.10;56.10
32356;DHT22;62102;46.562;13.914;2022-07-23T02:16:47;22.90;56.70
32356;DHT22;62102;46.562;13.914;2022-07-23T02:19:13;22.80;57.20
32356;DHT22;62102;46.562;13.914;2022-07-23T02:21:39;22.80;57.00
32356;DHT22;62102;46.562;13.914;2022-07-23T02:24:05;22.90;56.90
32356;DHT22;62102;46.562;13.914;2022-07-23T02:26:32;22.90;57.00
32356;DHT22;62102;46.562;13.914;2022-07-23T02:29:04;22.80;57.20
32356;DHT22;62102;46.562;13.914;2022-07-23T02:31:33;22.80;57.50
32356;DHT22;62102;46.562;13.914;2022-07-23T02:33:59;22.80;57.90
32356;DHT22;62102;46.562;13.914;2022-07-23T02:36:25;22.80;57.70
32356;DHT22;62102;46.562;13.914;2022-07-23T02:38:51;22.90;57.20
32356;DHT22;62102;46.562;13.914;2022-07-23T02:41:16;22.80;57.10
32356;DHT22;62102;46.562;13.914;2022-07-23T02:43:42;22.80;57.60
32356;DHT22;62102;46.562;13.914;2022-07-23T02:46:28;22.80;57.70
32356;DHT22;62102;46.562;13.914;2022-07-23T02:49:01;22.80;57.80
32356;DHT22;62102;46.562;13.914;2022-07-23T02:51:27;22.80;57.30
32356;DHT22;62102;46.562;13.914;2022-07-23T02:53:55;22.80;57.20
32356;DHT22;62102;46.562;13.914;2022-07-23T02:56:24;22.60;58.20
32356;DHT22;62102;46.562;13.914;2022-07-23T02:58:50;22.40;58.00
32356;DHT22;62102;46.562;13.914;2022-07-23T03:01:20;22.50;58.10
32356;DHT22;62102;46.562;13.914;2022-07-23T03:03:45;22.40;58.60
32356;DHT22;62102;46.562;13.914;2022-07-23T03:06:12;22.40;58.70
32356;DHT22;62102;46.562;13.914;2022-07-23T03:08:40;22.40;58.80
32356;DHT22;62102;46.562;13.914;2022-07-23T03:11:10;22.40;58.70
32356;DHT22;62102;46.562;13.914;2022-07-23T03:13:39;22.40;58.80
32356;DHT22;62102;46.562;13.914;2022-07-23T03:16:06;22.40;58.40
32356;DHT22;62102;46.562;13.914;2022-07-23T03:18:33;22.40;58.30
32356;DHT22;62102;46.562;13.914;2022-07-23T03:21:14;22.30;58.40
32356;DHT22;62102;46.562;13.914;2022-07-23T03:23:49;22.30;58.80
32356;DHT22;62102;46.562;13.914;2022-07-23T03:26:16;22.30;59.00
32356;DHT22;62102;46.562;13.914;2022-07-23T03:28:43;22.40;58.50
32356;DHT22;62102;46.562;13.914;2022-07-23T03:31:09;22.30;59.00
32356;DHT22;62102;46.562;13.914;2022-07-23T03:33:35;22.20;58.50
32356;DHT22;62102;46.562;13.914;2022-07-23T03:36:00;22.10;59.20
32356;DHT22;62102;46.562;13.914;2022-07-23T03:38:29;22.20;59.50
32356;DHT22;62102;46.562;13.914;2022-07-23T03:40:55;22.20;59.20
32356;DHT22;62102;46.562;13.914;2022-07-23T03:43:21;22.20;59.20
32356;DHT22;62102;46.562;13.914;2022-07-23T03:45:46;22.20;59.30
32356;DHT22;62102;46.562;13.914;2022-07-23T03:48:12;22.30;59.50
32356;DHT22;62102;46.562;13.914;2022-07-23T03:50:59;22.30;59.80
32356;DHT22;62102;46.562;13.914;2022-07-23T03:53:25;22.10;60.00
32356;DHT22;62102;46.562;13.914;2022-07-23T03:55:52;21.80;60.70
32356;DHT22;62102;46.562;13.914;2022-07-23T03:58:23;21.70;61.00
32356;DHT22;62102;46.562;13.914;2022-07-23T04:00:51;21.80;61.20
32356;DHT22;62102;46.562;13.914;2022-07-23T04:03:17;21.80;60.70
32356;DHT22;62102;46.562;13.914;2022-07-23T04:05:42;21.80;60.40
32356;DHT22;62102;46.562;13.914;2022-07-23T04:08:08;21.80;60.40
32356;DHT22;62102;46.562;13.914;2022-07-23T04:10:34;21.90;60.30
32356;DHT22;62102;46.562;13.914;2022-07-23T04:12:59;22.00;60.10
32356;DHT22;62102;46.562;13.914;2022-07-23T04:15:25;22.00;60.40
32356;DHT22;62102;46.562;13.914;2022-07-23T04:17:55;22.10;59.70
32356;DHT22;62102;46.562;13.914;2022-07-23T04:20:20;22.20;59.60
32356;DHT22;62102;46.562;13.914;2022-07-23T04:22:46;22.30;59.60
32356;DHT22;62102;46.562;13.914;2022-07-23T04:25:12;22.40;59.50
32356;DHT22;62102;46.562;13.914;2022-07-23T04:27:39;22.40;59.10
32356;DHT22;62102;46.562;13.914;2022-07-23T04:30:06;22.40;59.60
32356;DHT22;62102;46.562;13.914;2022-07-23T04:32:32;22.40;59.60
32356;DHT22;62102;46.562;13.914;2022-07-23T04:34:58;22.40;59.90
32356;DHT22;62102;46.562;13.914;2022-07-23T04:37:24;22.50;60.20
32356;DHT22;62102;46.562;13.914;2022-07-23T04:39:50;22.50;60.30
32356;DHT22;62102;46.562;13.914;2022-07-23T04:42:16;22.60;59.70
32356;DHT22;62102;46.562;13.914;2022-07-23T04:44:42;22.40;60.50
32356;DHT22;62102;46.562;13.914;2022-07-23T04:47:08;22.20;62.40
32356;DHT22;62102;46.562;13.914;2022-07-23T04:49:34;22.00;63.70
32356;DHT22;62102;46.562;13.914;2022-07-23T04:52:00;21.70;64.60
32356;DHT22;62102;46.562;13.914;2022-07-23T04:54:26;21.60;64.90
32356;DHT22;62102;46.562;13.914;2022-07-23T04:56:52;21.80;62.70
32356;DHT22;62102;46.562;13.914;2022-07-23T04:59:17;21.90;63.20
32356;DHT22;62102;46.562;13.914;2022-07-23T05:01:43;22.00;63.00
32356;DHT22;62102;46.562;13.914;2022-07-23T05:04:09;22.10;62.10
32356;DHT22;62102;46.562;13.914;2022-07-23T05:06:35;22.00;62.20
32356;DHT22;62102;46.562;13.914;2022-07-23T05:09:01;22.00;62.30
32356;DHT22;62102;46.562;13.914;2022-07-23T05:11:26;22.10;61.70
32356;DHT22;62102;46.562;13.914;2022-07-23T05:13:52;22.30;61.90
32356;DHT22;62102;46.562;13.914;2022-07-23T05:16:18;22.40;61.70
32356;DHT22;62102;46.562;13.914;2022-07-23T05:18:46;22.40;61.00
32356;DHT22;62102;46.562;13.914;2022-07-23T05:21:18;22.60;62.10
32356;DHT22;62102;46.562;13.914;2022-07-23T05:23:44;22.70;62.10
32356;DHT22;62102;46.562;13.914;2022-07-23T05:26:17;22.70;61.80
32356;DHT22;62102;46.562;13.914;2022-07-23T05:28:43;22.80;62.70
32356;DHT22;62102;46.562;13.914;2022-07-23T05:31:15;22.90;62.60
32356;DHT22;62102;46.562;13.914;2022-07-23T05:33:41;22.90;61.70
32356;DHT22;62102;46.562;13.914;2022-07-23T05:36:06;22.90;61.40
32356;DHT22;62102;46.562;13.914;2022-07-23T05:41:29;23.00;63.90
32356;DHT22;62102;46.562;13.914;2022-07-23T05:43:55;22.90;63.40
32356;DHT22;62102;46.562;13.914;2022-07-23T05:46:21;22.90;64.40
32356;DHT22;62102;46.562;13.914;2022-07-23T05:48:47;23.00;64.60
32356;DHT22;62102;46.562;13.914;2022-07-23T05:51:22;23.00;64.50
32356;DHT22;62102;46.562;13.914;2022-07-23T05:53:52;23.20;64.90
32356;DHT22;62102;46.562;13.914;2022-07-23T05:56:18;23.30;63.60
32356;DHT22;62102;46.562;13.914;2022-07-23T05:58:44;23.30;62.10
32356;DHT22;62102;46.562;13.914;2022-07-23T06:01:10;23.40;61.30
32356;DHT22;62102;46.562;13.914;2022-07-23T06:03:38;23.40;59.70
32356;DHT22;62102;46.562;13.914;2022-07-23T06:06:05;23.40;59.30
32356;DHT22;62102;46.562;13.914;2022-07-23T06:10:56;23.50;60.50
32356;DHT22;62102;46.562;13.914;2022-07-23T06:13:21;23.50;60.90
32356;DHT22;62102;46.562;13.914;2022-07-23T06:15:47;23.50;60.70
32356;DHT22;62102;46.562;13.914;2022-07-23T06:18:14;23.60;59.90
32356;DHT22;62102;46.562;13.914;2022-07-23T06:20:40;23.50;60.00
32356;DHT22;62102;46.562;13.914;2022-07-23T06:23:17;23.30;60.50
32356;DHT22;62102;46.562;13.914;2022-07-23T06:25:43;23.40;59.20
32356;DHT22;62102;46.562;13.914;2022-07-23T06:28:08;23.40;61.30
32356;DHT22;62102;46.562;13.914;2022-07-23T06:30:34;23.40;61.70
32356;DHT22;62102;46.562;13.914;2022-07-23T06:33:03;23.40;60.80
32356;DHT22;62102;46.562;13.914;2022-07-23T06:35:29;23.50;61.40
32356;DHT22;62102;46.562;13.914;2022-07-23T06:37:54;23.70;60.80
32356;DHT22;62102;46.562;13.914;2022-07-23T06:40:20;23.90;60.70
32356;DHT22;62102;46.562;13.914;2022-07-23T06:42:46;24.00;61.10
32356;DHT22;62102;46.562;13.914;2022-07-23T06:45:12;24.10;60.50
32356;DHT22;62102;46.562;13.914;2022-07-23T06:47:38;24.20;60.60
32356;DHT22;62102;46.562;13.914;2022-07-23T06:50:05;24.30;59.90
32356;DHT22;62102;46.562;13.914;2022-07-23T06:52:31;24.50;59.40
32356;DHT22;62102;46.562;13.914;2022-07-23T06:54:57;24.50;59.40
32356;DHT22;62102;46.562;13.914;2022-07-23T06:57:22;24.60;57.80
32356;DHT22;62102;46.562;13.914;2022-07-23T06:59:51;24.70;57.90
32356;DHT22;62102;46.562;13.914;2022-07-23T07:02:17;24.70;57.60
32356;DHT22;62102;46.562;13.914;2022-07-23T07:04:43;24.70;58.10
32356;DHT22;62102;46.562;13.914;2022-07-23T07:07:09;24.80;58.10
32356;DHT22;62102;46.562;13.914;2022-07-23T07:09:34;24.80;57.70
32356;DHT22;62102;46.562;13.914;2022-07-23T07:12:00;24.80;57.80
32356;DHT22;62102;46.562;13.914;2022-07-23T07:14:27;24.80;58.00
32356;DHT22;62102;46.562;13.914;2022-07-23T07:16:53;24.80;57.70
32356;DHT22;62102;46.562;13.914;2022-07-23T07:19:20;24.70;58.10
32356;DHT22;62102;46.562;13.914;2022-07-23T07:21:49;24.70;57.60
32356;DHT22;62102;46.562;13.914;2022-07-23T07:24:15;24.60;57.40
32356;DHT22;62102;46.562;13.914;2022-07-23T07:26:43;24.80;57.50
32356;DHT22;62102;46.562;13.914;2022-07-23T07:29:21;24.90;54.80
32356;DHT22;62102;46.562;13.914;2022-07-23T07:31:50;25.10;51.20
32356;DHT22;62102;46.562;13.914;2022-07-23T07:34:17;25.20;52.30
32356;DHT22;62102;46.562;13.914;2022-07-23T07:36:43;25.40;52.40
32356;DHT22;62102;46.562;13.914;2022-07-23T07:39:12;25.50;51.40
32356;DHT22;62102;46.562;13.914;2022-07-23T07:41:44;25.60;54.60
32356;DHT22;62102;46.562;13.914;2022-07-23T07:44:13;25.60;54.80
32356;DHT22;62102;46.562;13.914;2022-07-23T07:46:40;25.60;53.90
32356;DHT22;62102;46.562;13.914;2022-07-23T07:49:07;25.70;52.70
32356;DHT22;62102;46.562;13.914;2022-07-23T07:51:34;25.60;51.10
32356;DHT22;62102;46.562;13.914;2022-07-23T07:54:00;25.60;51.90
32356;DHT22;62102;46.562;13.914;2022-07-23T07:56:26;25.70;51.70
32356;DHT22;62102;46.562;13.914;2022-07-23T07:58:53;25.60;51.20
32356;DHT22;62102;46.562;13.914;2022-07-23T08:01:18;25.50;52.80
32356;DHT22;62102;46.562;13.914;2022-07-23T08:03:46;25.40;52.00
32356;DHT22;62102;46.562;13.914;2022-07-23T08:06:15;25.40;50.00
32356;DHT22;62102;46.562;13.914;2022-07-23T08:08:40;25.30;51.00
32356;DHT22;62102;46.562;13.914;2022-07-23T08:11:07;25.30;51.00
32356;DHT22;62102;46.562;13.914;2022-07-23T08:13:35;25.30;49.40
32356;DHT22;62102;46.562;13.914;2022-07-23T08:16:02;25.20;49.40
32356;DHT22;62102;46.562;13.914;2022-07-23T08:18:29;25.20;49.00
32356;DHT22;62102;46.562;13.914;2022-07-23T08:20:56;25.10;49.50
32356;DHT22;62102;46.562;13.914;2022-07-23T08:23:46;25.10;49.60
32356;DHT22;62102;46.562;13.914;2022-07-23T08:26:12;25.10;50.40
32356;DHT22;62102;46.562;13.914;2022-07-23T08:28:39;24.90;51.40
32356;DHT22;62102;46.562;13.914;2022-07-23T08:31:05;24.60;53.20
32356;DHT22;62102;46.562;13.914;2022-07-23T08:33:33;24.50;54.20
32356;DHT22;62102;46.562;13.914;2022-07-23T08:35:59;24.40;54.80
32356;DHT22;62102;46.562;13.914;2022-07-23T08:40:54;24.60;53.70
32356;DHT22;62102;46.562;13.914;2022-07-23T08:43:30;24.80;53.30
32356;DHT22;62102;46.562;13.914;2022-07-23T08:45:57;25.00;52.40
32356;DHT22;62102;46.562;13.914;2022-07-23T08:50:54;25.70;54.50
32356;DHT22;62102;46.562;13.914;2022-07-23T08:53:20;25.90;53.50
32356;DHT22;62102;46.562;13.914;2022-07-23T08:55:48;25.90;51.90
32356;DHT22;62102;46.562;13.914;2022-07-23T08:58:15;25.90;52.10
32356;DHT22;62102;46.562;13.914;2022-07-23T09:00:41;25.90;50.70
32356;DHT22;62102;46.562;13.914;2022-07-23T09:03:13;26.00;52.20
32356;DHT22;62102;46.562;13.914;2022-07-23T09:05:40;26.30;51.20
32356;DHT22;62102;46.562;13.914;2022-07-23T09:08:09;26.60;51.70
32356;DHT22;62102;46.562;13.914;2022-07-23T09:10:52;26.80;52.00
32356;DHT22;62102;46.562;13.914;2022-07-23T09:15:54;27.00;50.00
32356;DHT22;62102;46.562;13.914;2022-07-23T09:18:49;27.00;50.40
32356;DHT22;62102;46.562;13.914;2022-07-23T09:21:27;27.20;50.40
32356;DHT22;62102;46.562;13.914;2022-07-23T09:24:00;27.30;50.50
32356;DHT22;62102;46.562;13.914;2022-07-23T09:26:34;27.40;50.00
32356;DHT22;62102;46.562;13.914;2022-07-23T09:31:34;27.50;49.70
32356;DHT22;62102;46.562;13.914;2022-07-23T09:34:12;27.60;48.50
32356;DHT22;62102;46.562;13.914;2022-07-23T09:36:39;27.70;49.00
32356;DHT22;62102;46.562;13.914;2022-07-23T09:39:05;27.80;49.50
32356;DHT22;62102;46.562;13.914;2022-07-23T09:41:49;27.80;48.90
32356;DHT22;62102;46.562;13.914;2022-07-23T09:44:18;27.80;48.70
32356;DHT22;62102;46.562;13.914;2022-07-23T09:46:46;27.90;48.70
32356;DHT22;62102;46.562;13.914;2022-07-23T09:49:19;28.00;50.00
32356;DHT22;62102;46.562;13.914;2022-07-23T09:52:03;28.00;46.70
32356;DHT22;62102;46.562;13.914;2022-07-23T09:54:30;28.10;48.60
32356;DHT22;62102;46.562;13.914;2022-07-23T09:57:00;28.00;46.20
32356;DHT22;62102;46.562;13.914;2022-07-23T09:59:34;28.00;47.20
32356;DHT22;62102;46.562;13.914;2022-07-23T10:02:01;28.10;47.80
32356;DHT22;62102;46.562;13.914;2022-07-23T10:04:28;28.30;48.80
32356;DHT22;62102;46.562;13.914;2022-07-23T10:06:59;28.40;47.30
32356;DHT22;62102;46.562;13.914;2022-07-23T10:09:43;28.60;46.90
32356;DHT22;62102;46.562;13.914;2022-07-23T10:12:12;28.80;45.80
32356;DHT22;62102;46.562;13.914;2022-07-23T10:14:46;28.90;45.10
32356;DHT22;62102;46.562;13.914;2022-07-23T10:17:13;28.90;45.20
32356;DHT22;62102;46.562;13.914;2022-07-23T10:19:39;29.10;45.00
32356;DHT22;62102;46.562;13.914;2022-07-23T10:22:08;29.10;43.50
32356;DHT22;62102;46.562;13.914;2022-07-23T10:27:52;29.50;44.10
32356;DHT22;62102;46.562;13.914;2022-07-23T10:35:40;29.50;42.50
32356;DHT22;62102;46.562;13.914;2022-07-23T10:38:53;29.70;43.00
32356;DHT22;62102;46.562;13.914;2022-07-23T10:41:37;29.90;42.30
32356;DHT22;62102;46.562;13.914;2022-07-23T10:44:14;30.20;41.90
32356;DHT22;62102;46.562;13.914;2022-07-23T10:47:00;30.50;43.20
32356;DHT22;62102;46.562;13.914;2022-07-23T10:49:47;30.70;41.80
32356;DHT22;62102;46.562;13.914;2022-07-23T10:52:21;30.60;41.00
32356;DHT22;62102;46.562;13.914;2022-07-23T10:57:25;30.80;40.50
32356;DHT22;62102;46.562;13.914;2022-07-23T11:02:38;31.20;39.50
32356;DHT22;62102;46.562;13.914;2022-07-23T11:05:10;31.40;43.10
32356;DHT22;62102;46.562;13.914;2022-07-23T11:08:12;31.70;42.00
32356;DHT22;62102;46.562;13.914;2022-07-23T11:10:46;31.90;41.20
32356;DHT22;62102;46.562;13.914;2022-07-23T11:31:54;32.00;40.50
32356;DHT22;62102;46.562;13.914;2022-07-23T11:34:31;31.80;39.80
32356;DHT22;62102;46.562;13.914;2022-07-23T11:37:02;31.80;41.20
32356;DHT22;62102;46.562;13.914;2022-07-23T11:39:30;31.80;41.20
32356;DHT22;62102;46.562;13.914;2022-07-23T11:41:57;31.80;40.80
32356;DHT22;62102;46.562;13.914;2022-07-23T11:44:34;31.90;39.50
32356;DHT22;62102;46.562;13.914;2022-07-23T11:47:10;32.10;40.70
32356;DHT22;62102;46.562;13.914;2022-07-23T11:49:37;32.20;40.20
32356;DHT22;62102;46.562;13.914;2022-07-23T11:52:04;32.20;39.50
32356;DHT22;62102;46.562;13.914;2022-07-23T11:54:31;32.30;39.90
32356;DHT22;62102;46.562;13.914;2022-07-23T11:56:57;32.20;38.00
32356;DHT22;62102;46.562;13.914;2022-07-23T11:59:25;32.10;37.50
32356;DHT22;62102;46.562;13.914;2022-07-23T12:02:03;32.10;38.00
32356;DHT22;62102;46.562;13.914;2022-07-23T12:04:41;32.20;37.30
32356;DHT22;62102;46.562;13.914;2022-07-23T12:07:30;32.40;37.40
32356;DHT22;62102;46.562;13.914;2022-07-23T12:10:05;32.70;38.30
32356;DHT22;62102;46.562;13.914;2022-07-23T12:12:40;32.80;37.80
32356;DHT22;62102;46.562;13.914;2022-07-23T12:15:07;32.90;37.00
32356;DHT22;62102;46.562;13.914;2022-07-23T12:17:36;32.80;36.40
32356;DHT22;62102;46.562;13.914;2022-07-23T12:20:08;33.00;36.10
32356;DHT22;62102;46.562;13.914;2022-07-23T12:22:40;32.90;36.50
32356;DHT22;62102;46.562;13.914;2022-07-23T12:25:11;33.00;37.90
32356;DHT22;62102;46.562;13.914;2022-07-23T12:27:38;33.10;37.00
32356;DHT22;62102;46.562;13.914;2022-07-23T12:30:28;33.20;37.00
32356;DHT22;62102;46.562;13.914;2022-07-23T12:32:57;33.40;34.40
32356;DHT22;62102;46.562;13.914;2022-07-23T12:35:30;33.40;36.40
32356;DHT22;62102;46.562;13.914;2022-07-23T12:38:01;33.60;35.30
32356;DHT22;62102;46.562;13.914;2022-07-23T12:40:28;33.70;33.90
32356;DHT22;62102;46.562;13.914;2022-07-23T12:45:25;33.80;34.60
32356;DHT22;62102;46.562;13.914;2022-07-23T12:50:49;34.10;33.90
32356;DHT22;62102;46.562;13.914;2022-07-23T12:53:18;34.10;36.30
32356;DHT22;62102;46.562;13.914;2022-07-23T12:55:45;34.20;34.70
32356;DHT22;62102;46.562;13.914;2022-07-23T12:58:17;34.20;34.30
32356;DHT22;62102;46.562;13.914;2022-07-23T13:03:29;34.40;34.60
32356;DHT22;62102;46.562;13.914;2022-07-23T13:05:55;34.30;35.20
32356;DHT22;62102;46.562;13.914;2022-07-23T13:10:47;34.20;34.90
32356;DHT22;62102;46.562;13.914;2022-07-23T13:13:15;34.30;33.70
32356;DHT22;62102;46.562;13.914;2022-07-23T13:15:42;34.50;34.90
32356;DHT22;62102;46.562;13.914;2022-07-23T13:18:08;34.70;34.70
32356;DHT22;62102;46.562;13.914;2022-07-23T13:20:34;34.80;34.70
32356;DHT22;62102;46.562;13.914;2022-07-23T13:23:00;34.90;32.90
32356;DHT22;62102;46.562;13.914;2022-07-23T13:25:27;35.00;32.80
32356;DHT22;62102;46.562;13.914;2022-07-23T13:27:52;35.10;31.80
32356;DHT22;62102;46.562;13.914;2022-07-23T13:30:18;35.10;33.20
32356;DHT22;62102;46.562;13.914;2022-07-23T13:32:44;35.30;33.60
32356;DHT22;62102;46.562;13.914;2022-07-23T13:35:10;35.30;32.30
32356;DHT22;62102;46.562;13.914;2022-07-23T13:37:37;35.40;31.80
32356;DHT22;62102;46.562;13.914;2022-07-23T13:40:03;35.30;31.60
32356;DHT22;62102;46.562;13.914;2022-07-23T13:42:29;35.40;33.10
32356;DHT22;62102;46.562;13.914;2022-07-23T13:44:55;35.50;32.10
32356;DHT22;62102;46.562;13.914;2022-07-23T13:47:21;35.40;32.40
32356;DHT22;62102;46.562;13.914;2022-07-23T13:49:46;35.60;32.20
32356;DHT22;62102;46.562;13.914;2022-07-23T13:52:12;35.50;32.10
32356;DHT22;62102;46.562;13.914;2022-07-23T13:54:38;35.20;31.00
32356;DHT22;62102;46.562;13.914;2022-07-23T13:57:04;35.10;30.80
32356;DHT22;62102;46.562;13.914;2022-07-23T13:59:29;35.00;31.40
32356;DHT22;62102;46.562;13.914;2022-07-23T14:01:55;35.20;32.10
32356;DHT22;62102;46.562;13.914;2022-07-23T14:04:22;35.10;30.80
32356;DHT22;62102;46.562;13.914;2022-07-23T14:06:47;34.90;31.60
32356;DHT22;62102;46.562;13.914;2022-07-23T14:09:16;35.00;31.80
32356;DHT22;62102;46.562;13.914;2022-07-23T14:11:41;34.90;31.80
32356;DHT22;62102;46.562;13.914;2022-07-23T14:14:07;34.90;30.80
32356;DHT22;62102;46.562;13.914;2022-07-23T14:16:33;35.00;31.80
32356;DHT22;62102;46.562;13.914;2022-07-23T14:18:59;34.80;30.90
32356;DHT22;62102;46.562;13.914;2022-07-23T14:21:24;34.80;33.00
32356;DHT22;62102;46.562;13.914;2022-07-23T14:23:50;34.90;32.20
32356;DHT22;62102;46.562;13.914;2022-07-23T14:26:16;35.00;32.00
32356;DHT22;62102;46.562;13.914;2022-07-23T14:28:42;35.20;32.20
32356;DHT22;62102;46.562;13.914;2022-07-23T14:31:07;35.30;31.90
32356;DHT22;62102;46.562;13.914;2022-07-23T14:33:35;35.40;30.70
32356;DHT22;62102;46.562;13.914;2022-07-23T14:36:01;35.30;30.90
32356;DHT22;62102;46.562;13.914;2022-07-23T14:40:56;35.10;31.30
32356;DHT22;62102;46.562;13.914;2022-07-23T14:43:22;35.10;32.00
32356;DHT22;62102;46.562;13.914;2022-07-23T14:45:47;35.10;30.90
32356;DHT22;62102;46.562;13.914;2022-07-23T14:48:13;34.90;31.30
32356;DHT22;62102;46.562;13.914;2022-07-23T14:50:39;34.90;31.40
32356;DHT22;62102;46.562;13.914;2022-07-23T14:53:05;35.00;30.80
32356;DHT22;62102;46.562;13.914;2022-07-23T14:55:31;34.70;31.50
32356;DHT22;62102;46.562;13.914;2022-07-23T14:57:57;34.70;32.40
32356;DHT22;62102;46.562;13.914;2022-07-23T15:00:22;34.60;30.60
32356;DHT22;62102;46.562;13.914;2022-07-23T15:02:50;34.50;31.10
32356;DHT22;62102;46.562;13.914;2022-07-23T15:05:17;34.60;31.50
32356;DHT22;62102;46.562;13.914;2022-07-23T15:07:43;34.70;32.00
32356;DHT22;62102;46.562;13.914;2022-07-23T15:10:08;34.80;30.10
32356;DHT22;62102;46.562;13.914;2022-07-23T15:12:34;34.80;31.90
32356;DHT22;62102;46.562;13.914;2022-07-23T15:15:00;34.90;30.90
32356;DHT22;62102;46.562;13.914;2022-07-23T15:17:26;35.00;31.20
32356;DHT22;62102;46.562;13.914;2022-07-23T15:19:51;35.10;31.20
32356;DHT22;62102;46.562;13.914;2022-07-23T15:22:17;35.20;31.00
32356;DHT22;62102;46.562;13.914;2022-07-23T15:24:43;35.10;30.00
32356;DHT22;62102;46.562;13.914;2022-07-23T15:27:09;34.90;31.40
32356;DHT22;62102;46.562;13.914;2022-07-23T15:29:35;34.90;31.20
32356;DHT22;62102;46.562;13.914;2022-07-23T15:32:02;34.80;30.60
32356;DHT22;62102;46.562;13.914;2022-07-23T15:34:28;34.50;32.00
32356;DHT22;62102;46.562;13.914;2022-07-23T15:36:54;34.40;31.20
32356;DHT22;62102;46.562;13.914;2022-07-23T15:39:20;34.30;30.80
32356;DHT22;62102;46.562;13.914;2022-07-23T15:41:45;34.40;31.90
32356;DHT22;62102;46.562;13.914;2022-07-23T15:44:11;34.60;30.50
32356;DHT22;62102;46.562;13.914;2022-07-23T15:46:37;34.60;31.50
32356;DHT22;62102;46.562;13.914;2022-07-23T15:49:03;34.60;32.50
32356;DHT22;62102;46.562;13.914;2022-07-23T15:51:28;34.30;35.50
32356;DHT22;62102;46.562;13.914;2022-07-23T15:53:54;34.30;35.90
32356;DHT22;62102;46.562;13.914;2022-07-23T15:56:20;34.10;34.50
32356;DHT22;62102;46.562;13.914;2022-07-23T15:58:46;34.00;36.40
32356;DHT22;62102;46.562;13.914;2022-07-23T16:01:12;34.10;36.90
32356;DHT22;62102;46.562;13.914;2022-07-23T16:03:38;33.80;38.20
32356;DHT22;62102;46.562;13.914;2022-07-23T16:06:06;33.80;38.60
32356;DHT22;62102;46.562;13.914;2022-07-23T16:11:02;33.40;39.00
32356;DHT22;62102;46.562;13.914;2022-07-23T16:13:28;33.30;37.30
32356;DHT22;62102;46.562;13.914;2022-07-23T16:15:55;33.00;38.10
32356;DHT22;62102;46.562;13.914;2022-07-23T16:20:48;32.80;40.50
32356;DHT22;62102;46.562;13.914;2022-07-23T16:23:20;32.80;39.40
32356;DHT22;62102;46.562;13.914;2022-07-23T16:25:47;32.80;39.60
32356;DHT22;62102;46.562;13.914;2022-07-23T16:28:18;32.60;40.40